Time;durP1;ratioP1;P1;durP2;ratioP2;P2;SDS_P1;SDS_P2;PMS_P1;PMS_P2;Temp;Humidity;BMP_temperature;BMP_pressure;BME280_temperature;BME280_humidity;BME280_pressure;Samples;Min_cycle;Max_cycle;Signal;HPM_P1;HPM_P2
2021/08/15 00:00:56;;;;;;;7.68;4.97;;;;;;;24.27;52.41;101696.09;5061811;28;20036;-77
2021/08/15 00:03:22;;;;;;;14.27;5.55;;;;;;;24.23;52.41;101697.44;5066324;28;20075;-77
2021/08/15 00:05:47;;;;;;;8.23;4.97;;;;;;;24.04;52.26;101663.47;5065890;28;20048;-77
2021/08/15 00:08:13;;;;;;;8.45;4.85;;;;;;;24.14;52.42;101668.50;5066847;28;20043;-77
2021/08/15 00:10:39;;;;;;;8.43;5.05;;;;;;;24.18;52.52;101680.41;5064882;28;20093;-77
2021/08/15 00:13:06;;;;;;;7.68;5.22;;;;;;;24.17;52.38;101684.09;5067357;28;20067;-77
2021/08/15 00:15:32;;;;;;;6.63;4.65;;;;;;;23.99;52.59;101656.06;5044063;28;20051;-77
2021/08/15 00:17:58;;;;;;;7.10;5.10;;;;;;;24.04;52.52;101653.66;5064374;28;20041;-77
2021/08/15 00:20:23;;;;;;;7.03;5.10;;;;;;;24.15;52.69;101670.16;5061926;28;20032;-77
2021/08/15 00:22:49;;;;;;;7.57;4.72;;;;;;;24.05;52.73;101651.81;5064032;28;20048;-77
2021/08/15 00:25:16;;;;;;;8.18;4.88;;;;;;;24.14;52.78;101660.50;5064767;28;20043;-77
2021/08/15 00:27:46;;;;;;;8.65;5.60;;;;;;;24.07;52.82;101649.81;5066243;28;20051;-77
2021/08/15 00:30:14;;;;;;;;;;;;;;;24.11;52.60;101664.38;5065088;28;20398;-77
2021/08/15 00:32:40;;;;;;;7.40;4.82;;;;;;;24.08;52.65;101649.63;5065719;28;19920;-77
2021/08/15 00:35:07;;;;;;;6.93;5.05;;;;;;;23.98;52.62;101633.13;5066901;28;20029;-77
2021/08/15 00:37:33;;;;;;;7.72;4.95;;;;;;;24.05;52.85;101647.31;5065863;28;20070;-77
2021/08/15 00:39:58;;;;;;;9.68;5.22;;;;;;;24.02;52.79;101645.03;5064178;28;20046;-77
2021/08/15 00:42:24;;;;;;;7.40;4.88;;;;;;;23.97;52.84;101643.97;5065036;28;20036;-77
2021/08/15 00:44:50;;;;;;;6.90;4.90;;;;;;;23.90;52.80;101641.22;5049850;28;20044;-77
2021/08/15 00:47:15;;;;;;;7.53;5.63;;;;;;;24.04;52.96;101658.16;5059958;28;20044;-77
2021/08/15 00:49:41;;;;;;;9.13;5.13;;;;;;;24.03;52.86;101657.31;5062604;28;20036;-77
2021/08/15 00:52:06;;;;;;;7.57;5.10;;;;;;;23.90;52.74;101640.41;5060380;28;20051;-77
2021/08/15 00:54:33;;;;;;;7.82;4.95;;;;;;;24.03;52.82;101656.50;5065729;28;20064;-77
2021/08/15 00:57:00;;;;;;;7.10;4.55;;;;;;;23.99;52.75;101648.06;5066200;28;20044;-77
2021/08/15 00:59:26;;;;;;;7.22;4.90;;;;;;;23.94;52.76;101642.50;5058383;28;20041;-77
2021/08/15 01:01:53;;;;;;;11.13;5.50;;;;;;;24.02;52.75;101650.34;5065501;28;20033;-77
2021/08/15 01:04:20;;;;;;;8.30;5.18;;;;;;;24.01;52.78;101653.19;5065269;28;20098;-77
2021/08/15 01:06:47;;;;;;;7.97;5.38;;;;;;;23.98;52.90;101651.75;5064886;28;20071;-77
2021/08/15 01:09:13;;;;;;;8.05;4.90;;;;;;;24.00;52.87;101654.22;5064548;28;20082;-77
2021/08/15 01:11:38;;;;;;;7.57;5.10;;;;;;;23.95;52.95;101652.13;5062749;28;20037;-77
2021/08/15 01:14:06;;;;;;;8.77;5.65;;;;;;;23.98;53.06;101650.94;5065083;28;20044;-77
2021/08/15 01:16:42;;;;;;;9.05;5.57;;;;;;;23.86;52.85;101637.28;5063102;28;20044;-77
2021/08/15 01:19:08;;;;;;;8.00;5.43;;;;;;;23.90;53.03;101651.88;5064337;28;20024;-77
2021/08/15 01:21:34;;;;;;;7.28;4.93;;;;;;;23.85;52.89;101637.47;5062378;28;20041;-77
2021/08/15 01:24:00;;;;;;;8.20;5.82;;;;;;;23.87;53.06;101632.78;5064668;28;20125;-77
2021/08/15 01:26:26;;;;;;;8.93;5.28;;;;;;;23.94;53.15;101647.81;5065264;28;20447;-77
2021/08/15 01:28:52;;;;;;;8.70;5.80;;;;;;;23.92;53.25;101633.06;5065296;28;20044;-77
2021/08/15 01:31:21;;;;;;;7.20;5.10;;;;;;;23.92;52.87;101631.22;5069934;28;20047;-77
2021/08/15 01:33:46;;;;;;;7.30;4.82;;;;;;;23.86;53.11;101629.28;5050645;28;21010;-76
2021/08/15 01:36:15;;;;;;;7.95;5.05;;;;;;;23.90;53.20;101625.28;5068061;28;20033;-77
2021/08/15 01:38:41;;;;;;;8.90;5.38;;;;;;;23.84;53.07;101614.53;5068516;28;20470;-77
2021/08/15 01:41:08;;;;;;;7.80;5.35;;;;;;;23.87;52.96;101620.31;5068545;28;20449;-75
2021/08/15 01:43:57;;;;;;;8.68;5.57;;;;;;;23.82;53.24;101596.09;5068462;28;20036;-77
2021/08/15 01:46:26;;;;;;;8.20;5.53;;;;;;;23.80;53.32;101592.81;5066696;28;20382;-77
2021/08/15 01:48:52;;;;;;;7.63;5.10;;;;;;;23.86;53.17;101599.22;5059044;28;20032;-77
2021/08/15 01:51:18;;;;;;;7.13;5.18;;;;;;;23.87;53.05;101611.50;5050421;28;20041;-77
2021/08/15 01:53:46;;;;;;;7.35;5.45;;;;;;;23.78;53.09;101594.84;5051261;28;20048;-77
2021/08/15 01:56:12;;;;;;;7.95;5.55;;;;;;;23.80;53.17;101601.63;5068588;28;20048;-77
2021/08/15 01:58:37;;;;;;;8.38;5.50;;;;;;;23.87;53.19;101614.16;5068160;28;20110;-77
2021/08/15 02:01:03;;;;;;;7.55;5.05;;;;;;;23.81;53.20;101591.81;5051201;28;20043;-77
2021/08/15 02:03:30;;;;;;;8.07;5.32;;;;;;;23.88;53.13;101597.19;5067275;28;20078;-77
2021/08/15 02:05:55;;;;;;;6.93;5.25;;;;;;;23.85;53.15;101598.38;5068899;28;20082;-77
2021/08/15 02:08:21;;;;;;;7.35;5.40;;;;;;;23.75;53.21;101569.44;5068111;28;20028;-77
2021/08/15 02:10:46;;;;;;;8.15;5.10;;;;;;;23.86;53.16;101592.06;5069179;28;20029;-77
2021/08/15 02:13:12;;;;;;;10.02;5.72;;;;;;;23.81;53.04;101581.16;5069016;28;20036;-77
2021/08/15 02:15:38;;;;;;;8.73;5.60;;;;;;;23.85;53.40;101592.25;5055771;28;20041;-77
2021/08/15 02:18:03;;;;;;;8.38;5.63;;;;;;;23.83;53.11;101587.13;5044758;28;20040;-77
2021/08/15 02:20:31;;;;;;;8.77;5.63;;;;;;;23.71;53.15;101576.16;5049132;28;20040;-75
2021/08/15 02:22:56;;;;;;;7.78;5.50;;;;;;;23.73;53.15;101578.63;5068347;28;20055;-77
2021/08/15 02:25:23;;;;;;;8.77;5.60;;;;;;;23.84;53.16;101591.44;5049514;28;20486;-77
2021/08/15 02:27:49;;;;;;;7.40;4.85;;;;;;;23.82;53.24;101585.47;5050846;28;20123;-77
2021/08/15 02:30:17;;;;;;;7.80;5.25;;;;;;;23.82;53.34;101582.81;5069046;28;20043;-77
2021/08/15 02:32:43;;;;;;;7.38;5.22;;;;;;;23.76;53.19;101567.63;5066689;28;20040;-77
2021/08/15 02:35:11;;;;;;;8.07;5.68;;;;;;;23.81;53.23;101581.16;5068692;28;20043;-77
2021/08/15 02:37:37;;;;;;;8.98;5.68;;;;;;;23.83;53.18;101578.31;5068597;28;20044;-77
2021/08/15 02:40:05;;;;;;;8.68;5.18;;;;;;;23.73;53.51;101571.47;5068708;28;20548;-77
2021/08/15 02:42:33;;;;;;;8.95;5.47;;;;;;;23.79;53.42;101577.88;5064481;28;20087;-77
2021/08/15 02:45:00;;;;;;;7.50;5.13;;;;;;;23.70;53.21;101560.41;5068253;28;20494;-77
2021/08/15 02:47:25;;;;;;;8.63;5.70;;;;;;;23.77;53.31;101570.09;5061041;28;20044;-77
2021/08/15 02:49:51;;;;;;;7.25;5.25;;;;;;;23.57;53.39;101528.34;5067359;28;20044;-77
2021/08/15 02:52:17;;;;;;;8.55;5.75;;;;;;;23.77;53.34;101566.59;5067341;28;20045;-77
2021/08/15 02:54:43;;;;;;;8.10;5.43;;;;;;;23.70;53.73;101553.25;5066549;28;20033;-77
2021/08/15 02:57:09;;;;;;;8.30;5.53;;;;;;;23.72;53.41;101558.38;5066540;28;20043;-77
2021/08/15 02:59:39;;;;;;;6.60;4.82;;;;;;;23.72;53.26;101559.19;5065449;28;20458;-77
2021/08/15 03:02:14;;;;;;;;;;;;;;;23.76;53.51;101563.13;5066584;28;20518;-77
2021/08/15 03:04:41;;;;;;;7.20;5.57;;;;;;;23.54;53.09;101528.69;5067683;28;19912;-77
2021/08/15 03:07:06;;;;;;;6.72;4.43;;;;;;;23.73;53.55;101563.50;5047100;28;20040;-77
2021/08/15 03:09:32;;;;;;;8.95;5.78;;;;;;;23.73;53.47;101568.00;5067199;28;20116;-76
2021/08/15 03:11:58;;;;;;;9.07;5.70;;;;;;;23.72;53.47;101561.84;5067442;28;20035;-77
2021/08/15 03:14:24;;;;;;;7.65;5.25;;;;;;;23.73;53.21;101560.84;5061877;28;20041;-77
2021/08/15 03:16:50;;;;;;;7.45;4.82;;;;;;;23.72;53.50;101553.88;5066086;28;20032;-77
2021/08/15 03:19:15;;;;;;;8.23;5.30;;;;;;;23.73;53.63;101552.03;5058025;28;20406;-77
2021/08/15 03:21:41;;;;;;;7.43;5.13;;;;;;;23.73;53.22;101547.53;5048557;28;20043;-77
2021/08/15 03:24:07;;;;;;;7.47;4.68;;;;;;;23.73;53.52;101542.22;5065659;28;20738;-77
2021/08/15 03:26:32;;;;;;;8.75;5.35;;;;;;;23.67;53.20;101536.81;5067680;28;20032;-77
2021/08/15 03:28:58;;;;;;;7.25;4.47;;;;;;;23.64;53.51;101531.88;5067098;28;20029;-77
2021/08/15 03:31:24;;;;;;;8.90;5.53;;;;;;;23.70;53.43;101536.47;5049388;28;20460;-77
2021/08/15 03:33:50;;;;;;;7.78;5.40;;;;;;;23.63;53.34;101520.44;5066283;28;20116;-77
2021/08/15 03:36:15;;;;;;;7.38;5.40;;;;;;;23.71;53.41;101532.78;5066489;28;20043;-77
2021/08/15 03:38:41;;;;;;;8.05;5.40;;;;;;;23.70;53.28;101531.97;5066915;28;20044;-77
2021/08/15 03:41:07;;;;;;;7.32;5.07;;;;;;;23.69;53.66;101522.31;5066019;28;20114;-77
2021/08/15 03:43:32;;;;;;;6.97;4.78;;;;;;;23.66;53.38;101528.03;5064501;28;20044;-77
2021/08/15 03:45:58;;;;;;;7.70;5.00;;;;;;;23.69;53.51;101530.28;5060095;28;20067;-77
2021/08/15 03:48:23;;;;;;;7.72;5.07;;;;;;;23.36;53.55;101475.94;5060145;28;20036;-77
2021/08/15 03:50:49;;;;;;;7.18;4.85;;;;;;;23.64;53.41;101519.41;5064743;28;20040;-77
2021/08/15 03:53:14;;;;;;;7.75;5.18;;;;;;;23.68;53.41;101525.16;5067860;28;20042;-77
2021/08/15 03:55:40;;;;;;;7.88;5.07;;;;;;;23.66;53.54;101527.19;5067773;28;20090;-77
2021/08/15 03:58:05;;;;;;;7.50;5.07;;;;;;;23.64;53.76;101521.25;5063040;28;20064;-77
2021/08/15 04:00:32;;;;;;;7.70;5.03;;;;;;;23.67;53.30;101532.31;5066774;28;20485;-77
2021/08/15 04:02:57;;;;;;;6.07;4.57;;;;;;;23.65;53.63;101522.91;5063466;28;20115;-77
2021/08/15 04:05:23;;;;;;;6.13;4.47;;;;;;;23.69;53.51;101534.78;5066859;28;20055;-77
2021/08/15 04:07:48;;;;;;;6.53;4.40;;;;;;;23.62;53.58;101523.28;5066373;28;20082;-77
2021/08/15 04:10:14;;;;;;;9.07;5.43;;;;;;;23.59;53.52;101524.47;5067371;28;20032;-77
2021/08/15 04:12:39;;;;;;;7.18;5.00;;;;;;;23.66;53.42;101535.16;5063529;28;20059;-77
2021/08/15 04:15:05;;;;;;;6.78;4.55;;;;;;;23.36;53.35;101489.22;5061860;28;20044;-77
2021/08/15 04:17:31;;;;;;;6.43;4.57;;;;;;;23.65;53.68;101544.16;5048523;28;20051;-77
2021/08/15 04:19:56;;;;;;;7.43;5.10;;;;;;;23.65;53.46;101538.84;5065113;28;20047;-77
2021/08/15 04:22:22;;;;;;;5.78;4.43;;;;;;;23.65;53.50;101537.00;5064767;28;20044;-77
2021/08/15 04:24:47;;;;;;;6.30;4.68;;;;;;;23.66;53.52;101538.66;5064685;28;20501;-77
2021/08/15 04:27:13;;;;;;;6.45;4.90;;;;;;;23.64;53.40;101546.00;5066278;28;20033;-77
2021/08/15 04:29:39;;;;;;;6.78;5.00;;;;;;;23.62;53.41;101542.72;5048681;28;20052;-77
2021/08/15 04:32:08;;;;;;;7.65;5.32;;;;;;;23.57;53.46;101536.31;5066329;28;20031;-77
2021/08/15 04:34:34;;;;;;;7.88;5.47;;;;;;;23.51;53.53;101529.84;5064306;28;20474;-77
2021/08/15 04:37:00;;;;;;;6.70;4.80;;;;;;;23.64;53.44;101539.84;5064030;28;20119;-77
2021/08/15 04:39:26;;;;;;;7.18;4.75;;;;;;;23.60;53.63;101541.25;5064137;28;20045;-77
2021/08/15 04:41:51;;;;;;;7.18;4.45;;;;;;;23.59;53.71;101531.63;5065460;28;20060;-77
2021/08/15 04:44:17;;;;;;;7.85;5.07;;;;;;;23.50;53.66;101523.72;5065563;28;20089;-77
2021/08/15 04:46:42;;;;;;;7.57;5.50;;;;;;;23.62;53.57;101545.38;5066165;28;20047;-77
2021/08/15 04:49:08;;;;;;;6.65;5.00;;;;;;;23.54;53.40;101526.84;5066853;28;20033;-77
2021/08/15 04:51:34;;;;;;;6.53;4.88;;;;;;;23.60;53.49;101536.75;5061427;28;20093;-77
2021/08/15 04:53:59;;;;;;;6.63;4.70;;;;;;;23.62;53.55;101540.03;5072202;28;20037;-77
2021/08/15 04:56:25;;;;;;;8.90;4.72;;;;;;;23.61;53.75;101526.94;5066095;28;20533;-77
2021/08/15 04:58:50;;;;;;;8.07;4.85;;;;;;;23.60;53.44;101520.81;5065004;28;20513;-77
2021/08/15 05:01:16;;;;;;;7.15;5.20;;;;;;;23.60;53.55;101523.47;5064522;28;20044;-77
2021/08/15 05:03:41;;;;;;;8.18;4.90;;;;;;;23.59;53.58;101524.47;5066696;28;20447;-77
2021/08/15 05:06:07;;;;;;;6.78;4.40;;;;;;;23.57;53.75;101518.53;5067575;28;20113;-77
2021/08/15 05:08:32;;;;;;;6.85;4.32;;;;;;;23.50;53.77;101493.66;5070504;28;20481;-77
2021/08/15 05:10:58;;;;;;;6.28;4.30;;;;;;;23.59;53.49;101510.38;5069612;28;20448;-77
2021/08/15 05:13:27;;;;;;;6.03;4.22;;;;;;;23.56;53.72;101500.91;5069677;28;20119;-77
2021/08/15 05:15:54;;;;;;;6.83;4.70;;;;;;;23.57;53.73;101489.28;5051628;28;20116;-77
2021/08/15 05:18:20;;;;;;;7.88;5.15;;;;;;;23.58;53.80;101493.59;5068572;28;20549;-77
2021/08/15 05:20:46;;;;;;;7.40;5.05;;;;;;;23.60;53.55;101498.72;5068373;28;20131;-77
2021/08/15 05:23:12;;;;;;;6.38;4.70;;;;;;;23.22;53.56;101432.44;5048962;28;20103;-77
2021/08/15 05:25:38;;;;;;;7.10;5.10;;;;;;;23.50;53.65;101485.69;5070668;28;20498;-77
2021/08/15 05:28:05;;;;;;;8.63;5.25;;;;;;;23.53;53.77;101482.66;5051976;28;20029;-77
2021/08/15 05:30:34;;;;;;;6.38;4.38;;;;;;;23.51;53.60;101469.53;5052532;28;20061;-77
2021/08/15 05:33:00;;;;;;;7.38;5.05;;;;;;;23.59;53.68;101483.78;5061741;28;20040;-77
2021/08/15 05:35:25;;;;;;;5.68;4.07;;;;;;;23.54;53.52;101472.88;5065237;28;20087;-77
2021/08/15 05:37:51;;;;;;;7.00;4.53;;;;;;;23.58;53.58;101484.78;5066018;28;20418;-77
2021/08/15 05:40:17;;;;;;;7.65;4.60;;;;;;;23.55;53.53;101479.81;5063654;28;20087;-78
2021/08/15 05:42:44;;;;;;;7.35;5.00;;;;;;;23.55;53.74;101483.31;5049406;28;20425;-76
2021/08/15 05:45:10;;;;;;;6.20;4.45;;;;;;;23.59;53.68;101483.78;5067643;28;20108;-76
2021/08/15 05:47:36;;;;;;;7.05;4.82;;;;;;;23.58;53.59;101485.63;5052206;28;20538;-77
2021/08/15 05:50:04;;;;;;;6.70;4.65;;;;;;;23.58;53.67;101480.28;5069346;28;20132;-78
2021/08/15 05:52:29;;;;;;;7.35;4.28;;;;;;;23.24;53.49;101418.97;5043715;28;20317;-77
2021/08/15 05:54:55;;;;;;;7.10;4.78;;;;;;;23.58;53.71;101460.88;5059494;28;20029;-78
2021/08/15 05:57:21;;;;;;;6.28;4.53;;;;;;;23.50;53.55;101445.81;5067486;28;20078;-78
2021/08/15 05:59:46;;;;;;;7.10;4.68;;;;;;;23.58;53.63;101458.19;5064450;28;20032;-78
2021/08/15 06:02:12;;;;;;;7.97;4.50;;;;;;;23.57;53.52;101451.25;5064033;28;20037;-78
2021/08/15 06:04:37;;;;;;;7.78;4.68;;;;;;;23.57;53.50;101452.06;5064712;28;20037;-75
2021/08/15 06:07:03;;;;;;;6.03;4.57;;;;;;;23.58;53.43;101452.88;5063934;28;20048;-77
2021/08/15 06:09:28;;;;;;;6.88;4.53;;;;;;;23.58;53.45;101447.56;5061751;28;20043;-78
2021/08/15 06:11:54;;;;;;;7.15;4.47;;;;;;;23.59;53.60;101443.91;5070027;28;20576;-75
2021/08/15 06:14:19;;;;;;;7.32;5.10;;;;;;;23.57;53.39;101448.59;5061875;28;20036;-78
2021/08/15 06:16:45;;;;;;;6.45;4.30;;;;;;;23.57;53.53;101449.41;5068210;28;20106;-78
2021/08/15 06:19:11;;;;;;;6.20;4.22;;;;;;;23.59;53.45;101450.03;5051312;28;20048;-77
2021/08/15 06:21:37;;;;;;;7.40;4.70;;;;;;;23.59;53.73;101450.03;5067681;28;20036;-77
2021/08/15 06:24:04;;;;;;;7.07;4.72;;;;;;;23.58;53.51;101436.94;5068610;28;20047;-77
2021/08/15 06:26:30;;;;;;;6.93;4.65;;;;;;;23.55;53.62;101429.31;5065238;28;20037;-77
2021/08/15 06:28:55;;;;;;;7.00;4.60;;;;;;;23.56;53.47;101433.63;5055311;28;20086;-76
2021/08/15 06:31:22;;;;;;;7.07;4.43;;;;;;;23.51;53.51;101434.97;5064219;28;20037;-75
2021/08/15 06:33:48;;;;;;;6.63;4.25;;;;;;;23.59;53.68;101455.34;5067338;28;20046;-75
2021/08/15 06:36:14;;;;;;;6.93;4.30;;;;;;;23.60;53.55;101467.63;5070506;28;20123;-77
2021/08/15 06:38:40;;;;;;;6.93;4.40;;;;;;;23.60;53.48;101470.28;5051663;28;20051;-77
2021/08/15 06:41:07;;;;;;;6.38;4.50;;;;;;;23.40;53.54;101426.72;5057562;28;20037;-77
2021/08/15 06:43:33;;;;;;;7.93;4.78;;;;;;;23.64;53.51;101462.75;5056823;28;20093;-76
2021/08/15 06:45:58;;;;;;;7.05;4.90;;;;;;;23.60;53.43;101450.84;5060797;28;20037;-75
2021/08/15 06:48:24;;;;;;;8.50;4.57;;;;;;;23.50;53.54;101427.19;5058467;28;20044;-75
2021/08/15 06:50:54;;;;;;;7.35;4.63;;;;;;;23.66;53.42;101458.88;5037554;28;20086;-75
2021/08/15 06:53:21;;;;;;;7.38;4.80;;;;;;;23.63;53.56;101459.28;5075327;28;20116;-76
2021/08/15 06:55:47;;;;;;;6.63;4.53;;;;;;;23.55;53.50;101442.59;5068336;28;20033;-77
2021/08/15 06:58:13;;;;;;;7.15;4.50;;;;;;;23.67;53.46;101457.06;5063119;28;20041;-77
2021/08/15 07:00:39;;;;;;;5.75;4.15;;;;;;;23.67;53.53;101467.69;5055256;28;20391;-77
2021/08/15 07:03:04;;;;;;;5.70;4.10;;;;;;;23.58;53.36;101445.72;5063584;28;20044;-77
2021/08/15 07:05:30;;;;;;;6.47;4.28;;;;;;;23.76;53.28;101464.72;5064535;28;20043;-77
2021/08/15 07:07:55;;;;;;;5.55;4.10;;;;;;;23.67;53.31;101452.56;5055790;28;20040;-77
2021/08/15 07:10:21;;;;;;;7.97;4.85;;;;;;;23.65;53.35;101446.59;5052368;28;20040;-77
2021/08/15 07:12:52;;;;;;;6.30;4.25;;;;;;;23.67;53.30;101447.25;5062481;28;20349;-77
2021/08/15 07:15:18;;;;;;;5.60;4.03;;;;;;;23.77;53.38;101463.72;5059404;28;20394;-78
2021/08/15 07:17:44;;;;;;;5.80;4.18;;;;;;;23.76;53.50;101455.94;5062158;28;20048;-77
2021/08/15 07:20:10;;;;;;;6.45;4.15;;;;;;;23.62;53.34;101438.19;5065519;28;20048;-77
2021/08/15 07:22:35;;;;;;;6.78;4.63;;;;;;;23.75;53.54;101467.56;5058580;28;20040;-77
2021/08/15 07:25:03;;;;;;;6.65;4.05;;;;;;;23.68;53.35;101446.22;5065381;28;20103;-77
2021/08/15 07:27:29;;;;;;;6.45;3.97;;;;;;;23.77;53.35;101465.56;5065843;28;20048;-77
2021/08/15 07:29:54;;;;;;;6.55;4.15;;;;;;;23.80;53.46;101458.00;5059027;28;20113;-76
2021/08/15 07:32:20;;;;;;;5.85;4.55;;;;;;;23.76;53.58;101458.59;5061037;28;20048;-77
2021/08/15 07:34:45;;;;;;;6.85;4.53;;;;;;;23.73;53.09;101459.78;5067457;28;20086;-78
2021/08/15 07:37:11;;;;;;;5.50;4.03;;;;;;;23.81;53.48;101466.81;5065050;28;20414;-76
2021/08/15 07:39:37;;;;;;;6.05;4.07;;;;;;;23.75;53.46;101456.94;5053158;28;20070;-77
2021/08/15 07:42:02;;;;;;;6.32;4.13;;;;;;;23.86;53.36;101461.72;5068608;28;20048;-75
2021/08/15 07:44:28;;;;;;;5.20;4.07;;;;;;;23.80;53.22;101451.88;5061075;28;20620;-76
2021/08/15 07:46:54;;;;;;;7.03;4.63;;;;;;;23.85;53.40;101453.94;5047535;28;20074;-77
2021/08/15 07:49:19;;;;;;;6.07;3.95;;;;;;;23.92;53.20;101457.50;5047345;28;20052;-77
2021/08/15 07:51:45;;;;;;;7.88;4.47;;;;;;;23.91;53.24;101455.84;5072889;28;20032;-77
2021/08/15 07:54:10;;;;;;;7.13;4.22;;;;;;;23.95;53.33;101457.94;5071633;28;20029;-77
2021/08/15 07:56:36;;;;;;;5.70;3.90;;;;;;;23.91;53.21;101453.19;5065606;28;20035;-77
2021/08/15 07:59:01;;;;;;;5.20;4.00;;;;;;;23.83;53.29;101435.53;5067108;28;20064;-77
2021/08/15 08:01:27;;;;;;;5.85;3.75;;;;;;;23.98;53.29;101449.56;5064248;28;20036;-77
2021/08/15 08:03:52;;;;;;;7.15;4.18;;;;;;;23.99;53.36;101451.22;5065027;28;20045;-77
2021/08/15 08:06:18;;;;;;;5.60;4.03;;;;;;;23.99;53.19;101443.22;5060928;28;20036;-75
2021/08/15 08:08:43;;;;;;;5.97;3.80;;;;;;;24.03;53.29;101444.47;5065850;28;20048;-75
2021/08/15 08:11:09;;;;;;;5.82;4.07;;;;;;;24.03;53.18;101441.00;5064012;28;20086;-76
2021/08/15 08:13:34;;;;;;;5.50;3.92;;;;;;;24.05;53.21;101445.09;5049536;28;20111;-77
2021/08/15 08:16:00;;;;;;;5.60;4.03;;;;;;;24.06;53.34;101446.78;5067369;28;20040;-76
2021/08/15 08:18:25;;;;;;;6.22;3.88;;;;;;;24.05;53.35;101439.78;5060664;28;20444;-76
2021/08/15 08:20:51;;;;;;;7.35;4.13;;;;;;;24.08;53.30;101439.44;5059258;28;20127;-77
2021/08/15 08:23:17;;;;;;;7.55;4.25;;;;;;;24.10;53.31;101426.75;5054942;28;20426;-77
2021/08/15 08:25:45;;;;;;;5.30;3.72;;;;;;;24.12;53.31;101423.88;5060765;28;20063;-78
2021/08/15 08:28:12;;;;;;;6.05;4.18;;;;;;;23.76;53.19;101370.81;5067585;28;20051;-75
2021/08/15 08:30:38;;;;;;;6.20;3.78;;;;;;;24.03;53.19;101401.09;5065629;28;20470;-76
2021/08/15 08:33:04;;;;;;;6.55;4.10;;;;;;;24.04;53.21;101413.38;5064171;28;20039;-75
2021/08/15 08:35:30;;;;;;;5.82;3.72;;;;;;;24.04;53.30;101403.56;5045511;28;20545;-78
2021/08/15 08:37:56;;;;;;;5.90;3.80;;;;;;;24.15;53.30;101417.34;5065623;28;20628;-78
2021/08/15 08:40:22;;;;;;;5.35;3.85;;;;;;;24.16;53.14;101417.16;5065300;28;20037;-78
2021/08/15 08:42:48;;;;;;;5.82;3.60;;;;;;;24.17;53.34;101415.31;5064708;28;20063;-78
2021/08/15 08:45:19;;;;;;;6.18;4.15;;;;;;;24.08;53.01;101398.69;5063863;28;20060;-78
2021/08/15 08:47:47;;;;;;;5.72;4.00;;;;;;;24.13;53.29;101398.94;5049199;28;20032;-79
2021/08/15 08:50:13;;;;;;;5.40;3.90;;;;;;;24.18;53.21;101401.81;5063313;28;20045;-79
2021/08/15 08:52:41;;;;;;;5.10;3.90;;;;;;;24.23;53.22;101411.88;5057161;28;20406;-79
2021/08/15 08:55:07;;;;;;;6.22;4.05;;;;;;;24.21;53.03;101401.44;5057554;28;20075;-79
2021/08/15 08:57:34;;;;;;;4.57;3.63;;;;;;;24.24;53.14;101402.91;5055926;28;20076;-79
2021/08/15 09:00:00;;;;;;;6.65;4.07;;;;;;;24.24;53.28;101398.41;5059768;28;20071;-79
2021/08/15 09:02:26;;;;;;;5.68;3.97;;;;;;;24.25;53.32;101392.06;5066491;28;20075;-79
2021/08/15 09:04:52;;;;;;;6.00;4.00;;;;;;;24.27;53.17;101397.19;5054640;28;20037;-79
2021/08/15 09:07:23;;;;;;;4.97;3.65;;;;;;;24.28;53.14;101382.84;5063782;28;20064;-79
2021/08/15 09:09:54;;;;;;;5.53;3.70;;;;;;;24.27;53.30;101383.88;5055389;28;20486;-79
2021/08/15 09:12:20;;;;;;;5.75;4.00;;;;;;;24.27;53.25;101387.34;5060352;28;20052;-79
2021/08/15 09:14:46;;;;;;;6.28;3.80;;;;;;;24.26;53.16;101374.25;5060911;28;20162;-79
2021/08/15 09:17:12;;;;;;;5.97;3.75;;;;;;;24.25;53.29;101365.44;5066447;28;20497;-79
2021/08/15 09:19:49;;;;;;;6.65;4.00;;;;;;;24.31;53.13;101371.84;5059563;28;20029;-79
2021/08/15 09:22:22;;;;;;;6.78;3.90;;;;;;;24.31;53.19;101366.53;5057945;28;20028;-79
2021/08/15 09:25:11;;;;;;;6.05;3.72;;;;;;;24.29;53.23;101364.06;5059093;28;20115;-77
2021/08/15 09:27:55;;;;;;;4.88;3.40;;;;;;;24.33;53.04;101356.50;5052474;28;20041;-79
2021/08/15 09:30:29;;;;;;;5.55;3.80;;;;;;;24.33;53.18;101352.00;5052581;28;20374;-78
2021/08/15 09:32:59;;;;;;;4.57;3.50;;;;;;;24.27;53.17;101344.78;5056327;28;20061;-78
2021/08/15 09:35:30;;;;;;;6.45;4.00;;;;;;;24.32;53.18;101354.84;5065558;28;20037;-78
2021/08/15 09:38:10;;;;;;;6.30;3.75;;;;;;;24.32;53.26;101349.53;5061452;28;20174;-79
2021/08/15 09:40:38;;;;;;;6.18;3.97;;;;;;;24.33;53.15;101349.34;5038404;28;20174;-79
2021/08/15 09:43:07;;;;;;;4.78;3.67;;;;;;;24.32;53.31;101347.69;5040605;28;20086;-79
2021/08/15 09:45:37;;;;;;;4.68;3.50;;;;;;;24.33;53.24;101333.38;5050140;28;20033;-78
2021/08/15 09:48:36;;;;;;;6.75;3.83;;;;;;;24.33;53.14;101335.19;5049909;28;20090;-78
2021/08/15 09:51:11;;;;;;;5.40;3.90;;;;;;;24.34;53.16;101337.66;5061686;28;20048;-79
2021/08/15 09:53:39;;;;;;;5.78;3.75;;;;;;;24.30;53.18;101328.44;5055228;28;20068;-79
2021/08/15 09:56:05;;;;;;;5.63;3.80;;;;;;;24.29;53.28;101320.66;5064333;28;20056;-78
2021/08/15 09:58:31;;;;;;;5.65;3.88;;;;;;;24.29;53.34;101318.00;5069575;28;20044;-78
2021/08/15 10:00:57;;;;;;;5.07;3.70;;;;;;;24.29;52.96;101312.66;5063458;28;20052;-78
2021/08/15 10:03:23;;;;;;;5.10;3.60;;;;;;;24.35;53.14;101327.84;5069410;28;20086;-78
2021/08/15 10:05:49;;;;;;;6.15;4.00;;;;;;;24.35;53.30;101325.19;5061483;28;20028;-78
2021/08/15 10:08:15;;;;;;;5.07;3.88;;;;;;;24.36;53.17;101318.84;5037060;28;20037;-78
2021/08/15 10:10:41;;;;;;;6.03;3.63;;;;;;;24.35;53.22;101320.69;5058691;28;20032;-78
2021/08/15 10:13:07;;;;;;;5.55;4.00;;;;;;;24.35;53.43;101314.53;5066313;28;20101;-78
2021/08/15 10:15:35;;;;;;;5.68;4.10;;;;;;;24.30;53.31;101309.00;5052135;28;20124;-77
2021/08/15 10:18:05;;;;;;;5.53;3.95;;;;;;;24.35;53.27;101315.34;5054438;28;20493;-78
2021/08/15 10:20:31;;;;;;;6.68;3.95;;;;;;;24.36;53.23;101311.66;5070832;28;20501;-78
2021/08/15 10:23:08;;;;;;;5.95;4.25;;;;;;;24.36;53.32;101311.66;5064520;28;20478;-77
2021/08/15 10:25:41;;;;;;;6.00;4.10;;;;;;;24.36;53.37;101313.50;5057057;28;20037;-77
2021/08/15 10:28:29;;;;;;;5.78;3.47;;;;;;;24.28;53.28;101293.19;5051084;28;20055;-77
2021/08/15 10:30:58;;;;;;;5.45;3.97;;;;;;;24.35;53.21;101306.53;5057335;28;20082;-76
2021/08/15 10:33:28;;;;;;;6.55;3.92;;;;;;;24.35;53.41;101301.22;5062353;28;20040;-76
2021/08/15 10:36:27;;;;;;;6.03;4.05;;;;;;;24.35;53.34;101299.38;5062464;28;20044;-77
2021/08/15 10:38:55;;;;;;;6.72;4.65;;;;;;;24.28;53.61;101282.53;5052373;28;20107;-76
2021/08/15 10:41:45;;;;;;;4.95;3.45;;;;;;;24.36;53.43;101290.38;5064780;28;20058;-77
2021/08/15 10:44:13;;;;;;;6.53;4.25;;;;;;;24.36;53.37;101286.91;5066284;28;20151;-77
2021/08/15 10:47:13;;;;;;;4.97;3.42;;;;;;;24.34;53.30;101288.94;5066012;28;20036;-77
2021/08/15 10:49:50;;;;;;;5.75;3.90;;;;;;;24.35;53.34;101285.25;5066884;28;20025;-76
2021/08/15 10:52:37;;;;;;;5.30;3.90;;;;;;;24.36;53.44;101290.38;5066458;28;20924;-75
2021/08/15 10:55:09;;;;;;;6.45;4.05;;;;;;;24.24;53.39;101265.34;5064128;28;20119;-75
2021/08/15 10:57:37;;;;;;;6.20;4.43;;;;;;;24.35;53.43;101286.06;5068303;28;20048;-75
2021/08/15 11:00:34;;;;;;;7.47;4.40;;;;;;;24.34;53.38;101281.78;5049257;28;20032;-75
2021/08/15 11:03:12;;;;;;;6.68;3.92;;;;;;;24.11;53.53;101243.97;5066888;28;20367;-75
2021/08/15 11:05:40;;;;;;;6.47;3.95;;;;;;;24.29;53.45;101272.75;5067354;28;20029;-74
2021/08/15 11:08:31;;;;;;;6.25;3.97;;;;;;;24.35;53.41;101272.75;5067412;28;20402;-75
2021/08/15 11:11:11;;;;;;;7.70;4.15;;;;;;;24.35;53.40;101262.13;5062883;28;20033;-75
2021/08/15 11:13:39;;;;;;;7.07;4.47;;;;;;;24.17;53.43;101235.19;5064458;28;20032;-77
2021/08/15 11:16:43;;;;;;;7.70;4.78;;;;;;;24.34;53.15;101270.31;5065942;28;20040;-76
2021/08/15 11:19:09;;;;;;;5.93;4.15;;;;;;;24.36;53.43;101263.75;5063109;28;20029;-76
2021/08/15 11:22:02;;;;;;;5.25;4.13;;;;;;;24.37;53.29;101261.91;5066293;28;20127;-76
2021/08/15 11:24:30;;;;;;;6.72;4.60;;;;;;;24.37;53.35;101252.09;5060904;28;20028;-76
2021/08/15 11:26:56;;;;;;;6.35;4.07;;;;;;;24.30;53.64;101237.13;5061798;28;20482;-76
2021/08/15 11:29:23;;;;;;;6.88;4.55;;;;;;;24.37;53.36;101256.59;5059288;28;20109;-75